Terminal Aerodrome Forecast
Issued by NWS Bismarck, ND

Home | Current Version | Previous Version | Text Only | Print | Product List | Glossary On
Versions: 1 2 3 4 5 6 7 8 9 10 11 12 13 14 15 16
000
FTUS43 KBIS 012330
TAFBIS
TAF
KBIS 012330Z 0200/0224 07004KT P6SM BKN050
     FM020200 08005KT P6SM SCT080 SCT250
     FM020700 VRB03KT 4SM FU VCTS SCT050CB
     FM021500 30007KT P6SM BKN060=

USA.gov is the U.S. government's official web portal to all federal, state and local government web resources and services.